Airfield :







YOU CAN JOIN US ON...

 
LOGIN :

Register | Disclaimer

   EN    FR    IT 

 









Legend :    VFR   Marginal VFR   IFR   Intensive IFR   Very Intensive IFR
Visi :
Ceiling :
>= 8 km
>= 3000ft
5 to 8 km
1000 to 3000 ft
1500m to 5 km
500 to 1000 ft
800 to 1500m
200 to 500 ft
< 800m
< 200 ft
Symbols :   Thunderstorms  Fog  Heavy snow  Heavy precipitations  Wind > 20 kt






- Airport Elevation : 270 ft
- IATA code : YMX


CYMX - Montreal International Mirabel

CURRENT METAR :
  • 210400Z 24003KT 25SM SKC M18/M20 A2996 RMK SLP154

EXPIRED METARs :
  • 210300Z 24004KT 25SM FEW240 M16/M18 A2998 RMK CI1 CI TR SLP161
  • 210200Z 26003KT 25SM FEW240 M15/M17 A2999 RMK CI1 CI TR SLP164

TAF TAF CYMX
Valid from the 21 at 00:00 until the 22 at 00:00 UTC


202341Z 2100/2124 29005KT P6SM FEW030
FM210500 VRB03KT P6SM SCT020 BKN080
TEMPO 2105/2109 BKN020 OVC080
FM210900 VRB03KT 5SM -SN BKN030 OVC080
FM211100 05006KT 2SM -SN BKN008 OVC020
FM211600 06008KT 21/2SM -SN OVC007
FM212300 05006KT 11/2SM -SHSN OVC006 RMK NXT FCST BY 210600Z
CZUL FIR / North America



MET'MAP, your aeronautical weather chart ! - Copyright ORBIFLY December 2007 - Disclaimer

ORBIFLY MET'MAP TEAM :

Programming & Development : Alexandra Zaïnal
Concept & original design : Baudouin d'Aumeries
Assistance for programming : Marc-Olivier Méhu
Technical & hardware support : Manuel Goepfert

Contact : metmap@orbifly.com




SOURCES & CREDITS :

   NOAA